createdAt,value
2023-05-19T00:02:09.305Z,100413.31
2023-05-19T00:07:03.007Z,100413.72
2023-05-19T00:11:54.870Z,100409.53
2023-05-19T00:16:47.547Z,100418.31
2023-05-19T00:21:39.278Z,100412.88
2023-05-19T00:26:31.135Z,100406.41
2023-05-19T00:31:22.861Z,100412.53
2023-05-19T00:36:14.658Z,100398.31
2023-05-19T00:41:07.033Z,100406.09
2023-05-19T00:45:58.661Z,100410.97
2023-05-19T00:50:51.146Z,100411.41
2023-05-19T00:55:42.959Z,100396.38
2023-05-19T01:00:35.221Z,100403.69
2023-05-19T01:05:27.068Z,100411.63
2023-05-19T01:10:18.898Z,100408.47
2023-05-19T01:15:11.158Z,100404.75
2023-05-19T01:20:38.607Z,100402.84
2023-05-19T01:25:58.113Z,100405.38
2023-05-19T01:30:54.394Z,100403.94
2023-05-19T01:35:47.572Z,100401.88
2023-05-19T01:40:41.735Z,100394.56
2023-05-19T01:45:34.488Z,100396.66
2023-05-19T01:50:26.348Z,100395.44
2023-05-19T01:55:18.265Z,100384.16
2023-05-19T02:00:25.812Z,100397.75
2023-05-19T02:05:31.416Z,100396.09
2023-05-19T02:10:27.626Z,100392.31
2023-05-19T02:15:26.802Z,100389.00
2023-05-19T02:20:18.911Z,100385.88
2023-05-19T02:25:11.411Z,100398.41
2023-05-19T02:30:04.243Z,100393.19
2023-05-19T02:34:56.614Z,100399.25
2023-05-19T02:39:48.375Z,100418.31
2023-05-19T02:44:40.207Z,100417.25
2023-05-19T02:49:35.875Z,100416.81
2023-05-19T02:54:27.540Z,100422.03
2023-05-19T02:59:19.479Z,100420.16
2023-05-19T03:04:11.262Z,100422.44
2023-05-19T03:09:03.106Z,100413.25
2023-05-19T03:13:54.693Z,100406.75
2023-05-19T03:18:46.418Z,100413.03
2023-05-19T03:23:38.065Z,100424.97
2023-05-19T03:28:29.764Z,100407.63
2023-05-19T03:33:21.495Z,100400.28
2023-05-19T03:38:13.265Z,100387.75
2023-05-19T03:43:04.939Z,100365.78
2023-05-19T03:47:56.892Z,100358.91
2023-05-19T03:52:48.880Z,100346.97
2023-05-19T03:57:41.600Z,100334.84
2023-05-19T04:02:33.402Z,100354.91
2023-05-19T04:07:25.090Z,100383.78
2023-05-19T04:12:16.897Z,100380.84
2023-05-19T04:17:08.713Z,100382.09
2023-05-19T04:22:00.285Z,100379.19
2023-05-19T04:26:52.206Z,100380.84
2023-05-19T04:31:45.139Z,100389.81
2023-05-19T04:36:37.861Z,100386.69
2023-05-19T04:41:29.768Z,100385.22
2023-05-19T04:46:24.524Z,100367.44
2023-05-19T04:51:17.758Z,100372.06
2023-05-19T04:56:15.836Z,100382.91
2023-05-19T05:01:09.650Z,100383.31
2023-05-19T05:06:01.490Z,100388.13
2023-05-19T05:10:53.829Z,100392.94
2023-05-19T05:15:45.679Z,100401.75
2023-05-19T05:20:37.765Z,100402.78
2023-05-19T05:25:29.803Z,100397.78
2023-05-19T05:30:21.453Z,100384.00
2023-05-19T05:35:13.310Z,100405.75
2023-05-19T05:40:07.129Z,100401.78
2023-05-19T05:44:58.805Z,100401.75
2023-05-19T05:49:53.371Z,100402.41
2023-05-19T05:54:46.355Z,100400.91
2023-05-19T05:59:38.695Z,100406.78
2023-05-19T06:04:31.162Z,100416.59
2023-05-19T06:09:22.772Z,100404.66
2023-05-19T06:14:14.424Z,100429.53
2023-05-19T06:19:06.265Z,100427.63
2023-05-19T06:23:58.090Z,100430.09
2023-05-19T06:28:49.711Z,100436.78
2023-05-19T06:33:41.363Z,100428.34
2023-05-19T06:38:33.001Z,100433.75
2023-05-19T06:43:25.841Z,100440.09
2023-05-19T06:48:17.566Z,100432.28
2023-05-19T06:53:09.282Z,100428.03
2023-05-19T06:58:01.855Z,100436.63
2023-05-19T07:02:53.763Z,100442.72
2023-05-19T07:07:45.584Z,100429.31
2023-05-19T07:12:37.200Z,100428.03
2023-05-19T07:17:28.851Z,100432.00
2023-05-19T07:22:21.179Z,100434.00
2023-05-19T07:27:12.822Z,100442.09
2023-05-19T07:32:04.875Z,100440.28
2023-05-19T07:36:56.734Z,100450.72
2023-05-19T07:41:52.827Z,100449.97
2023-05-19T07:46:44.524Z,100445.56
2023-05-19T07:51:36.292Z,100457.78
2023-05-19T07:56:27.927Z,100449.19
2023-05-19T08:01:19.589Z,100461.88
2023-05-19T08:06:11.454Z,100464.03
2023-05-19T08:11:04.594Z,100459.03
2023-05-19T08:15:59.883Z,100458.00
2023-05-19T08:20:51.839Z,100456.38
2023-05-19T08:25:44.108Z,100455.34
2023-05-19T08:30:35.868Z,100451.13
2023-05-19T08:35:27.534Z,100451.56
2023-05-19T08:40:20.184Z,100448.84
2023-05-19T08:45:12.271Z,100447.09
2023-05-19T08:50:07.843Z,100450.91
2023-05-19T08:55:06.269Z,100452.63
2023-05-19T08:59:58.813Z,100450.19
2023-05-19T09:04:50.940Z,100442.88
2023-05-19T09:09:44.100Z,100442.03
2023-05-19T09:14:37.644Z,100442.25
2023-05-19T09:19:30.174Z,100435.53
2023-05-19T09:24:26.185Z,100429.97
2023-05-19T09:29:18.449Z,100434.31
2023-05-19T09:34:13.570Z,100423.94
2023-05-19T09:39:13.330Z,100426.19
2023-05-19T09:44:05.589Z,100433.56
2023-05-19T09:48:58.699Z,100442.19
2023-05-19T09:53:50.651Z,100446.84
2023-05-19T09:58:42.803Z,100440.25
2023-05-19T10:03:35.309Z,100425.72
2023-05-19T10:08:29.920Z,100435.53
2023-05-19T10:13:22.684Z,100441.00
2023-05-19T10:18:17.772Z,100431.63
2023-05-19T10:23:09.505Z,100427.31
2023-05-19T10:28:15.199Z,100428.00
2023-05-19T10:33:10.377Z,100434.47
2023-05-19T10:38:29.862Z,100439.94
2023-05-19T10:43:37.425Z,100429.47
2023-05-19T10:48:34.684Z,100432.13
2023-05-19T10:53:35.044Z,100436.97
2023-05-19T10:58:44.690Z,100451.69
2023-05-19T11:03:53.912Z,100445.00
2023-05-19T11:08:45.657Z,100435.28
2023-05-19T11:13:37.675Z,100438.06
2023-05-19T11:18:31.750Z,100446.59
2023-05-19T11:23:25.966Z,100440.56
2023-05-19T11:28:19.977Z,100442.41
2023-05-19T11:33:13.550Z,100438.47
2023-05-19T11:38:06.666Z,100442.22
2023-05-19T11:42:58.684Z,100438.69
2023-05-19T11:48:01.939Z,100443.63
2023-05-19T11:52:55.272Z,100437.19
2023-05-19T11:58:04.056Z,100435.66
2023-05-19T12:02:57.919Z,100440.16
2023-05-19T12:07:51.492Z,100431.97
2023-05-19T12:12:45.306Z,100432.34
2023-05-19T12:17:37.056Z,100434.81
2023-05-19T12:22:28.916Z,100423.75
2023-05-19T12:27:24.417Z,100433.03
2023-05-19T12:32:16.263Z,100434.81
2023-05-19T12:37:08.338Z,100430.66
2023-05-19T12:42:10.162Z,100434.81
2023-05-19T12:47:05.912Z,100425.50
2023-05-19T12:51:57.847Z,100424.94
2023-05-19T12:56:52.719Z,100423.84
2023-05-19T13:01:44.661Z,100427.75
2023-05-19T13:06:36.360Z,100412.34
2023-05-19T13:11:28.026Z,100417.06
2023-05-19T13:16:19.649Z,100416.59
2023-05-19T13:21:11.288Z,100409.19
2023-05-19T13:26:05.048Z,100410.44
2023-05-19T13:30:57.066Z,100401.00
2023-05-19T13:35:49.374Z,100420.63
2023-05-19T13:40:41.233Z,100422.56
2023-05-19T13:45:33.016Z,100414.13
2023-05-19T13:50:24.742Z,100409.63
2023-05-19T13:55:16.691Z,100403.69
2023-05-19T14:00:10.222Z,100403.19
2023-05-19T14:05:01.951Z,100401.44
2023-05-19T14:09:53.779Z,100401.09
2023-05-19T14:14:45.496Z,100392.38
2023-05-19T14:19:37.245Z,100381.59
2023-05-19T14:24:28.863Z,100378.97
2023-05-19T14:29:20.606Z,100377.03
2023-05-19T14:34:12.267Z,100388.75
2023-05-19T14:39:03.918Z,100389.38
2023-05-19T14:43:56.224Z,100387.50
2023-05-19T14:48:47.846Z,100379.06
2023-05-19T14:53:39.441Z,100389.91
2023-05-19T14:58:31.099Z,100385.31
2023-05-19T15:03:23.299Z,100389.84
2023-05-19T15:08:15.027Z,100381.44
2023-05-19T15:13:06.656Z,100391.25
2023-05-19T15:17:58.367Z,100403.41
2023-05-19T15:22:50.105Z,100394.94
2023-05-19T15:27:41.812Z,100386.44
2023-05-19T15:32:33.917Z,100386.94
2023-05-19T15:37:25.754Z,100385.00
2023-05-19T15:42:17.472Z,100388.88
2023-05-19T15:47:09.142Z,100394.16
2023-05-19T15:52:00.869Z,100393.91
2023-05-19T15:56:52.551Z,100391.72
2023-05-19T16:01:44.402Z,100395.50
2023-05-19T16:06:36.141Z,100394.72
2023-05-19T16:11:27.964Z,100398.16
2023-05-19T16:16:19.668Z,100414.91
2023-05-19T16:21:11.319Z,100406.00
2023-05-19T16:26:02.901Z,100413.84
2023-05-19T16:31:00.859Z,100411.72
2023-05-19T16:35:52.636Z,100418.56
2023-05-19T16:40:44.767Z,100413.22
2023-05-19T16:45:36.908Z,100415.38
2023-05-19T16:50:28.553Z,100416.59
2023-05-19T16:55:20.704Z,100416.66
2023-05-19T17:00:13.330Z,100418.22
2023-05-19T17:05:05.215Z,100409.56
2023-05-19T17:09:57.042Z,100409.84
2023-05-19T17:14:50.410Z,100420.38
2023-05-19T17:19:42.850Z,100408.09
2023-05-19T17:24:34.485Z,100420.84
2023-05-19T17:29:27.928Z,100416.34
2023-05-19T17:34:19.566Z,100421.56
2023-05-19T17:39:11.415Z,100418.75
2023-05-19T17:44:03.904Z,100421.38
2023-05-19T17:48:55.774Z,100421.13
2023-05-19T17:53:47.774Z,100425.78
2023-05-19T17:58:39.686Z,100421.50
2023-05-19T18:03:31.831Z,100428.53
2023-05-19T18:08:23.886Z,100439.56
2023-05-19T18:13:15.698Z,100434.69
2023-05-19T18:18:07.875Z,100441.69
2023-05-19T18:22:59.541Z,100447.38
2023-05-19T18:27:51.357Z,100447.03
2023-05-19T18:32:43.056Z,100450.06
2023-05-19T18:37:34.998Z,100442.06
2023-05-19T18:42:26.672Z,100453.09
2023-05-19T18:47:19.776Z,100455.31
2023-05-19T18:52:11.596Z,100463.03
2023-05-19T18:57:04.968Z,100473.75
2023-05-19T19:01:56.682Z,100476.47
2023-05-19T19:06:49.010Z,100479.91
2023-05-19T19:11:41.914Z,100490.44
2023-05-19T19:16:34.152Z,100478.84
2023-05-19T19:21:26.016Z,100489.84
2023-05-19T19:26:17.729Z,100489.09
2023-05-19T19:31:09.447Z,100498.88
2023-05-19T19:36:01.504Z,100493.59
2023-05-19T19:40:53.159Z,100497.81
2023-05-19T19:45:44.891Z,100498.13
2023-05-19T19:50:36.660Z,100514.72
2023-05-19T19:55:29.935Z,100519.75
2023-05-19T20:00:22.045Z,100513.91
2023-05-19T20:05:14.821Z,100511.78
2023-05-19T20:10:07.217Z,100520.19
2023-05-19T20:14:58.885Z,100530.97
2023-05-19T20:19:50.657Z,100530.59
2023-05-19T20:24:42.337Z,100524.94
2023-05-19T20:29:33.934Z,100531.25
2023-05-19T20:34:26.027Z,100531.06
2023-05-19T20:39:17.937Z,100527.13
2023-05-19T20:44:10.431Z,100534.69
2023-05-19T20:49:02.099Z,100537.41
2023-05-19T20:53:53.728Z,100534.69
2023-05-19T20:58:45.549Z,100528.03
2023-05-19T21:03:37.257Z,100526.78
2023-05-19T21:08:29.907Z,100534.81
2023-05-19T21:13:21.606Z,100534.84
2023-05-19T21:18:13.352Z,100544.53
2023-05-19T21:23:05.437Z,100543.75
2023-05-19T21:27:58.304Z,100545.88
2023-05-19T21:32:50.044Z,100555.56
2023-05-19T21:37:41.744Z,100556.44
2023-05-19T21:42:33.646Z,100553.09
2023-05-19T21:47:25.364Z,100555.22
2023-05-19T21:52:17.097Z,100554.63
2023-05-19T21:57:11.133Z,100556.34
2023-05-19T22:02:02.826Z,100561.34
2023-05-19T22:06:54.494Z,100565.75
2023-05-19T22:11:46.332Z,100567.84
2023-05-19T22:16:38.100Z,100557.16
2023-05-19T22:21:29.859Z,100563.88
2023-05-19T22:26:22.324Z,100563.69
2023-05-19T22:31:14.086Z,100570.41
2023-05-19T22:36:05.871Z,100563.75
2023-05-19T22:40:57.535Z,100566.25
2023-05-19T22:45:49.365Z,100570.91
2023-05-19T22:50:41.473Z,100565.44
2023-05-19T22:55:34.698Z,100576.38
2023-05-19T23:00:26.651Z,100570.50
2023-05-19T23:05:18.274Z,100574.31
2023-05-19T23:10:11.569Z,100584.59
2023-05-19T23:15:03.757Z,100575.19
2023-05-19T23:19:55.751Z,100569.53
2023-05-19T23:24:47.593Z,100569.78
2023-05-19T23:29:39.248Z,100565.78
2023-05-19T23:34:30.872Z,100557.22
2023-05-19T23:39:25.149Z,100568.09
2023-05-19T23:44:18.650Z,100559.91
2023-05-19T23:49:10.246Z,100564.97
2023-05-19T23:54:01.840Z,100551.16
2023-05-19T23:58:53.457Z,100552.00
